createdAt,value
2019-06-07T00:00:39.175Z,4.50
2019-06-07T00:03:03.036Z,3.43
2019-06-07T00:05:31.267Z,4.17
2019-06-07T00:08:07.465Z,3.95
2019-06-07T00:10:38.637Z,3.90
2019-06-07T00:13:06.929Z,5.37
2019-06-07T00:15:35.245Z,3.67
2019-06-07T00:18:03.415Z,3.70
2019-06-07T00:20:31.601Z,3.90
2019-06-07T00:22:59.747Z,3.83
2019-06-07T00:25:28.033Z,3.72
2019-06-07T00:27:56.231Z,3.77
2019-06-07T00:30:44.447Z,3.80
2019-06-07T00:32:54.254Z,3.90
2019-06-07T00:35:22.589Z,3.80
2019-06-07T00:37:50.823Z,3.87
2019-06-07T00:40:30.013Z,4.00
2019-06-07T00:42:48.829Z,4.13
2019-06-07T00:45:18.982Z,3.77
2019-06-07T00:47:46.857Z,3.97
2019-06-07T00:50:16.389Z,3.37
2019-06-07T00:55:17.436Z,3.97
2019-06-07T00:57:45.035Z,4.03
2019-06-07T01:00:15.033Z,4.23
2019-06-07T01:02:43.116Z,3.83
2019-06-07T01:05:15.419Z,4.17
2019-06-07T01:07:41.192Z,4.20
2019-06-07T01:10:11.180Z,4.87
2019-06-07T01:12:39.352Z,4.13
2019-06-07T01:15:08.328Z,3.57
2019-06-07T01:17:50.063Z,3.77
2019-06-07T01:20:16.707Z,3.83
2019-06-07T01:22:44.964Z,3.77
2019-06-07T01:25:13.251Z,4.20
2019-06-07T01:27:41.450Z,4.63
2019-06-07T01:30:10.522Z,4.10
2019-06-07T01:32:39.268Z,4.05
2019-06-07T01:35:08.940Z,4.80
2019-06-07T01:37:37.043Z,3.83
2019-06-07T01:40:05.828Z,3.63
2019-06-07T01:42:33.956Z,4.53
2019-06-07T01:45:02.309Z,3.33
2019-06-07T01:47:32.226Z,3.97
2019-06-07T01:50:00.393Z,3.80
2019-06-07T01:52:29.763Z,3.80
2019-06-07T01:54:59.111Z,3.97
2019-06-07T01:57:38.431Z,4.97
2019-06-07T01:59:57.353Z,4.60
2019-06-07T02:02:28.237Z,4.07
2019-06-07T02:04:55.267Z,4.03
2019-06-07T02:07:25.798Z,4.43
2019-06-07T02:09:53.219Z,3.80
2019-06-07T02:12:27.951Z,4.53
2019-06-07T02:14:51.353Z,4.53
2019-06-07T02:17:20.374Z,4.60
2019-06-07T02:19:49.304Z,4.55
2019-06-07T02:22:17.400Z,4.27
2019-06-07T02:24:46.238Z,4.97
2019-06-07T02:27:14.340Z,4.60
2019-06-07T02:29:42.438Z,5.00
2019-06-07T02:32:10.545Z,3.97
2019-06-07T02:34:39.839Z,4.53
2019-06-07T02:37:08.122Z,4.43
2019-06-07T02:39:40.504Z,4.70
2019-06-07T02:42:06.217Z,5.20
2019-06-07T02:44:39.149Z,5.03
2019-06-07T02:47:04.261Z,5.00
2019-06-07T02:49:39.618Z,4.77
2019-06-07T02:52:02.251Z,5.07
2019-06-07T02:54:36.080Z,4.95
2019-06-07T02:57:00.360Z,4.55
2019-06-07T02:59:56.906Z,4.73
2019-06-07T03:01:58.316Z,4.53
2019-06-07T03:04:29.500Z,5.23
2019-06-07T03:06:57.324Z,5.57
2019-06-07T03:09:26.374Z,4.13
2019-06-07T03:11:56.106Z,5.00
2019-06-07T03:14:25.998Z,4.67
2019-06-07T03:17:12.872Z,4.60
2019-06-07T03:19:42.821Z,5.58
2019-06-07T03:22:10.966Z,4.70
2019-06-07T03:24:42.013Z,5.08
2019-06-07T03:27:34.996Z,4.33
2019-06-07T03:29:41.254Z,4.75
2019-06-07T03:32:08.938Z,4.60
2019-06-07T03:34:41.233Z,5.30
2019-06-07T03:37:07.291Z,5.28
2019-06-07T03:39:37.096Z,5.23
2019-06-07T03:42:08.222Z,4.95
2019-06-07T03:44:38.235Z,5.23
2019-06-07T03:47:05.026Z,6.40
2019-06-07T03:49:36.460Z,4.40
2019-06-07T03:52:03.118Z,4.65
2019-06-07T03:54:36.987Z,4.77
2019-06-07T03:57:02.739Z,4.70
2019-06-07T03:59:35.556Z,5.30
2019-06-07T04:02:00.945Z,4.50
2019-06-07T04:04:29.785Z,4.83
2019-06-07T04:06:58.049Z,4.70
2019-06-07T04:09:45.485Z,4.33
2019-06-07T04:12:13.591Z,4.37
2019-06-07T04:14:42.793Z,4.13
2019-06-07T04:17:11.602Z,4.43
2019-06-07T04:19:43.314Z,3.80
2019-06-07T04:22:10.677Z,4.58
2019-06-07T04:24:41.847Z,4.03
2019-06-07T04:27:09.969Z,3.70
2019-06-07T04:30:03.022Z,4.10
2019-06-07T04:32:08.237Z,4.30
2019-06-07T04:34:40.132Z,4.17
2019-06-07T04:37:07.220Z,4.93
2019-06-07T04:39:38.253Z,5.27
2019-06-07T04:42:05.240Z,5.20
2019-06-07T04:44:36.665Z,4.63
2019-06-07T04:47:05.664Z,4.93
2019-06-07T04:49:38.126Z,5.23
2019-06-07T04:52:04.851Z,6.57
2019-06-07T04:57:33.458Z,4.30
2019-06-07T05:00:22.247Z,4.53
2019-06-07T05:02:32.009Z,4.47
2019-06-07T05:05:00.302Z,5.43
2019-06-07T05:07:30.956Z,4.73
2019-06-07T05:09:59.000Z,4.10
2019-06-07T05:12:27.109Z,4.00
2019-06-07T05:14:58.144Z,4.53
2019-06-07T05:17:26.445Z,5.75
2019-06-07T05:19:55.069Z,4.53
2019-06-07T05:22:23.156Z,4.53
2019-06-07T05:24:51.356Z,4.93
2019-06-07T05:27:19.468Z,14.53
2019-06-07T05:30:08.867Z,11.97
2019-06-07T05:32:18.404Z,5.50
2019-06-07T05:37:20.328Z,4.70
2019-06-07T05:39:48.432Z,5.70
2019-06-07T05:42:16.559Z,5.03
2019-06-07T05:44:45.853Z,5.10
2019-06-07T05:47:14.134Z,4.90
2019-06-07T05:49:46.317Z,4.80
2019-06-07T05:52:12.096Z,4.80
2019-06-07T05:54:42.385Z,5.23
2019-06-07T05:57:10.084Z,7.37
2019-06-07T05:59:41.134Z,4.43
2019-06-07T06:02:21.721Z,3.83
2019-06-07T06:04:42.528Z,3.70
2019-06-07T06:07:07.698Z,4.87
2019-06-07T06:09:36.459Z,4.43
2019-06-07T06:12:04.851Z,3.60
2019-06-07T06:14:35.201Z,3.80
2019-06-07T06:17:03.012Z,3.62
2019-06-07T06:19:32.551Z,3.67
2019-06-07T06:22:00.697Z,3.23
2019-06-07T06:24:28.808Z,4.00
2019-06-07T06:27:14.929Z,3.13
2019-06-07T06:29:27.584Z,3.17
2019-06-07T06:32:40.679Z,3.40
2019-06-07T06:34:25.609Z,3.20
2019-06-07T06:36:53.714Z,4.23
2019-06-07T06:39:21.851Z,2.90
2019-06-07T06:42:00.816Z,2.53
2019-06-07T06:44:20.067Z,2.77
2019-06-07T06:46:56.992Z,6.15
2019-06-07T06:49:18.653Z,6.73
2019-06-07T06:51:50.673Z,3.60
2019-06-07T06:54:37.292Z,4.83
2019-06-07T06:56:47.558Z,2.63
2019-06-07T07:01:49.443Z,3.80
2019-06-07T07:04:17.011Z,2.63
2019-06-07T07:06:45.981Z,2.60
2019-06-07T07:09:14.110Z,3.00
2019-06-07T07:11:59.240Z,2.40
2019-06-07T07:14:13.268Z,1.95
2019-06-07T07:16:42.178Z,3.07
2019-06-07T07:19:12.041Z,2.33
2019-06-07T07:21:41.937Z,2.30
2019-06-07T07:24:20.954Z,2.40
2019-06-07T07:26:40.103Z,2.37
2019-06-07T07:29:27.562Z,2.73
2019-06-07T07:31:56.557Z,2.20
2019-06-07T07:34:34.771Z,2.33
2019-06-07T07:36:59.559Z,3.10
2019-06-07T07:39:24.722Z,2.93
2019-06-07T07:42:17.057Z,2.33
2019-06-07T07:44:22.682Z,2.23
2019-06-07T07:46:54.069Z,1.90
2019-06-07T07:49:21.196Z,2.10
2019-06-07T07:51:52.799Z,2.13
2019-06-07T07:54:19.344Z,2.47
2019-06-07T07:56:48.963Z,7.40
2019-06-07T07:59:17.343Z,2.98
2019-06-07T08:01:46.119Z,2.63
2019-06-07T08:04:16.056Z,2.00
2019-06-07T08:06:44.164Z,2.03
2019-06-07T08:09:12.333Z,2.03
2019-06-07T08:11:40.488Z,1.82
2019-06-07T08:14:08.596Z,2.50
2019-06-07T08:16:36.820Z,1.70
2019-06-07T08:19:05.001Z,1.80
2019-06-07T08:21:33.111Z,2.15
2019-06-07T08:24:04.644Z,1.80
2019-06-07T08:26:31.261Z,2.00
2019-06-07T08:29:02.578Z,1.77
2019-06-07T08:31:29.480Z,1.90
2019-06-07T08:34:00.449Z,2.03
2019-06-07T08:36:41.296Z,1.93
2019-06-07T08:39:05.695Z,2.98
2019-06-07T08:41:27.255Z,1.93
2019-06-07T08:43:58.452Z,2.33
2019-06-07T08:46:25.301Z,2.10
2019-06-07T08:48:54.044Z,1.77
2019-06-07T08:51:23.222Z,1.60
2019-06-07T08:54:09.271Z,1.70
2019-06-07T08:56:22.110Z,1.60
2019-06-07T08:58:54.954Z,2.40
2019-06-07T09:01:20.226Z,2.23
2019-06-07T09:03:48.432Z,1.75
2019-06-07T09:07:01.163Z,2.03
2019-06-07T09:08:46.451Z,1.98
2019-06-07T09:11:14.558Z,2.50
2019-06-07T09:13:42.686Z,2.10
2019-06-07T09:16:10.875Z,1.98
2019-06-07T09:18:43.834Z,2.30
2019-06-07T09:21:09.759Z,2.03
2019-06-07T09:23:38.240Z,2.47
2019-06-07T09:26:17.572Z,2.30
2019-06-07T09:28:37.025Z,2.17
2019-06-07T09:31:09.871Z,2.63
2019-06-07T09:33:35.117Z,2.40
2019-06-07T09:36:09.228Z,1.80
2019-06-07T09:38:33.241Z,2.20
2019-06-07T09:41:03.171Z,2.37
2019-06-07T09:44:00.707Z,1.77
2019-06-07T09:46:04.664Z,2.87
2019-06-07T09:51:06.282Z,2.23
2019-06-07T09:53:30.664Z,2.23
2019-06-07T09:56:02.927Z,2.13
2019-06-07T09:58:51.315Z,2.10
2019-06-07T10:01:02.074Z,2.00
2019-06-07T10:03:28.773Z,1.80
2019-06-07T10:05:59.560Z,2.43
2019-06-07T10:09:42.605Z,2.07
2019-06-07T10:10:56.677Z,2.17
2019-06-07T10:13:24.901Z,2.23
2019-06-07T10:15:53.730Z,1.75
2019-06-07T10:18:21.998Z,2.37
2019-06-07T10:20:50.200Z,2.00
2019-06-07T10:23:18.329Z,1.80
2019-06-07T10:25:46.485Z,2.63
2019-06-07T10:28:14.583Z,2.37
2019-06-07T10:30:42.805Z,2.00
2019-06-07T10:33:11.029Z,2.90
2019-06-07T10:35:39.239Z,2.00
2019-06-07T10:38:08.545Z,2.40
2019-06-07T10:40:36.897Z,2.33
2019-06-07T10:43:05.114Z,3.13
2019-06-07T10:45:33.297Z,2.10
2019-06-07T10:48:01.563Z,2.72
2019-06-07T10:50:29.785Z,2.72
2019-06-07T10:52:57.902Z,2.15
2019-06-07T10:55:25.997Z,2.40
2019-06-07T10:57:54.136Z,2.00
2019-06-07T11:00:22.625Z,2.45
2019-06-07T11:02:54.289Z,2.40
2019-06-07T11:05:20.800Z,2.62
2019-06-07T11:07:49.583Z,2.58
2019-06-07T11:10:20.033Z,2.35
2019-06-07T11:12:47.596Z,2.00
2019-06-07T11:15:15.801Z,2.40
2019-06-07T11:17:44.034Z,2.12
2019-06-07T11:20:12.522Z,2.62
2019-06-07T11:22:40.767Z,2.33
2019-06-07T11:25:09.751Z,3.10
2019-06-07T11:27:39.396Z,2.57
2019-06-07T11:30:08.347Z,2.58
2019-06-07T11:32:36.771Z,2.30
2019-06-07T11:35:06.446Z,2.25
2019-06-07T11:37:35.209Z,2.47
2019-06-07T11:40:06.435Z,2.17
2019-06-07T11:42:35.056Z,2.35
2019-06-07T11:45:04.189Z,2.00
2019-06-07T11:47:32.351Z,2.37
2019-06-07T11:50:00.542Z,3.33
2019-06-07T11:52:28.670Z,2.37
2019-06-07T11:54:57.858Z,2.60
2019-06-07T11:57:26.057Z,3.10
2019-06-07T11:59:54.678Z,2.32
2019-06-07T12:02:22.795Z,2.22
2019-06-07T12:04:50.928Z,2.15
2019-06-07T12:07:19.962Z,2.10
2019-06-07T12:09:56.467Z,2.00
2019-06-07T12:12:20.475Z,2.93
2019-06-07T12:14:48.137Z,2.37
2019-06-07T12:17:17.546Z,2.00
2019-06-07T12:19:45.855Z,2.08
2019-06-07T12:22:14.243Z,1.80
2019-06-07T12:24:42.414Z,2.50
2019-06-07T12:27:10.513Z,2.40
2019-06-07T12:29:39.389Z,1.77
2019-06-07T12:32:07.548Z,2.47
2019-06-07T12:34:35.668Z,2.52
2019-06-07T12:37:03.863Z,1.90
2019-06-07T12:39:32.040Z,2.07
2019-06-07T12:42:00.172Z,2.40
2019-06-07T12:44:28.299Z,1.77
2019-06-07T12:46:56.445Z,2.10
2019-06-07T12:49:24.551Z,1.83
2019-06-07T12:51:54.199Z,1.87
2019-06-07T12:54:23.722Z,2.02
2019-06-07T12:56:52.459Z,2.07
2019-06-07T12:59:22.107Z,2.20
2019-06-07T13:01:50.301Z,2.47
2019-06-07T13:04:18.504Z,3.70
2019-06-07T13:06:46.812Z,2.75
2019-06-07T13:09:15.683Z,2.42
2019-06-07T13:11:45.580Z,1.87
2019-06-07T13:14:13.686Z,2.20
2019-06-07T13:16:41.832Z,2.67
2019-06-07T13:19:10.505Z,2.16
2019-06-07T13:21:40.296Z,2.20
2019-06-07T13:24:09.162Z,3.83
2019-06-07T13:26:37.316Z,3.67
2019-06-07T13:29:05.491Z,3.05
2019-06-07T13:31:33.723Z,2.37
2019-06-07T13:34:01.859Z,2.08
2019-06-07T13:36:30.033Z,2.27
2019-06-07T13:38:58.150Z,1.97
2019-06-07T13:41:36.279Z,2.27
2019-06-07T13:43:56.384Z,2.03
2019-06-07T13:46:25.347Z,2.08
2019-06-07T13:48:53.578Z,2.00
2019-06-07T13:51:23.257Z,2.00
2019-06-07T13:53:51.525Z,1.90
2019-06-07T13:56:19.872Z,1.77
2019-06-07T13:58:48.143Z,2.00
2019-06-07T14:01:16.386Z,1.77
2019-06-07T14:03:45.246Z,1.98
2019-06-07T14:06:13.532Z,3.27
2019-06-07T14:08:41.794Z,2.20
2019-06-07T14:11:09.893Z,2.50
2019-06-07T14:13:38.099Z,2.12
2019-06-07T14:16:06.233Z,2.17
2019-06-07T14:18:34.456Z,1.95
2019-06-07T14:21:03.412Z,2.20
2019-06-07T14:23:45.866Z,2.17
2019-06-07T14:26:01.367Z,1.77
2019-06-07T14:28:32.137Z,1.90
2019-06-07T14:33:33.877Z,2.75
2019-06-07T14:36:02.294Z,2.35
2019-06-07T14:38:34.021Z,2.50
2019-06-07T14:41:00.354Z,2.00
2019-06-07T14:43:29.611Z,1.77
2019-06-07T14:45:57.906Z,2.30
2019-06-07T14:48:26.152Z,2.40
2019-06-07T14:50:54.257Z,2.60
2019-06-07T14:53:22.444Z,2.42
2019-06-07T14:55:50.588Z,2.20
2019-06-07T14:58:18.804Z,1.70
2019-06-07T15:00:47.668Z,2.22
2019-06-07T15:03:15.798Z,2.15
2019-06-07T15:05:43.995Z,3.45
2019-06-07T15:08:12.156Z,2.27
2019-06-07T15:10:40.327Z,1.98
2019-06-07T15:13:08.593Z,2.12
2019-06-07T15:15:38.971Z,2.00
2019-06-07T15:18:06.739Z,2.52
2019-06-07T15:20:36.406Z,2.20
2019-06-07T15:23:04.773Z,1.90
2019-06-07T15:25:33.221Z,3.35
2019-06-07T15:28:01.587Z,2.83
2019-06-07T15:30:29.795Z,2.75
2019-06-07T15:32:59.822Z,3.57
2019-06-07T15:35:28.117Z,3.35
2019-06-07T15:37:56.445Z,3.80
2019-06-07T15:40:24.657Z,4.13
2019-06-07T15:42:53.463Z,3.63
2019-06-07T15:45:21.776Z,3.83
2019-06-07T15:47:49.980Z,3.57
2019-06-07T15:50:18.909Z,3.37
2019-06-07T15:52:47.152Z,3.43
2019-06-07T15:55:15.601Z,3.53
2019-06-07T15:57:43.789Z,3.60
2019-06-07T16:00:13.131Z,2.77
2019-06-07T16:02:41.778Z,3.12
2019-06-07T16:05:10.249Z,3.33
2019-06-07T16:07:38.450Z,3.27
2019-06-07T16:10:06.921Z,4.10
2019-06-07T16:12:36.694Z,4.42
2019-06-07T16:15:06.468Z,5.00
2019-06-07T16:17:35.044Z,4.43
2019-06-07T16:20:04.849Z,4.83
2019-06-07T16:22:33.531Z,3.70
2019-06-07T16:25:02.082Z,2.60
2019-06-07T16:27:30.364Z,1.90
2019-06-07T16:29:59.828Z,1.70
2019-06-07T16:32:28.030Z,3.15
2019-06-07T16:35:07.552Z,1.60
2019-06-07T16:37:42.752Z,1.22
2019-06-07T16:40:11.347Z,1.30
2019-06-07T16:42:40.647Z,1.57
2019-06-07T16:45:14.689Z,1.80
2019-06-07T16:47:45.267Z,2.00
2019-06-07T16:50:16.712Z,1.80
2019-06-07T16:52:46.487Z,1.90
2019-06-07T16:55:16.292Z,1.70
2019-06-07T16:57:45.214Z,1.17
2019-06-07T17:00:14.130Z,1.00
2019-06-07T17:02:42.386Z,0.90
2019-06-07T17:05:10.712Z,1.20
2019-06-07T17:07:40.302Z,0.90
2019-06-07T17:10:09.166Z,0.70
2019-06-07T17:12:40.404Z,1.13
2019-06-07T17:15:09.640Z,0.93
2019-06-07T17:17:40.799Z,0.90
2019-06-07T17:20:09.673Z,1.00
2019-06-07T17:22:39.086Z,0.80
2019-06-07T17:25:08.851Z,0.80
2019-06-07T17:27:37.156Z,0.87
2019-06-07T17:30:06.833Z,1.10
2019-06-07T17:32:49.142Z,0.90
2019-06-07T17:35:06.643Z,1.07
2019-06-07T17:37:37.691Z,0.90
2019-06-07T17:40:07.135Z,1.87
2019-06-07T17:42:35.285Z,1.63
2019-06-07T17:45:06.602Z,2.07
2019-06-07T17:47:37.833Z,2.00
2019-06-07T17:50:09.721Z,1.00
2019-06-07T17:52:37.917Z,1.33
2019-06-07T17:55:17.169Z,1.33
2019-06-07T17:57:46.403Z,0.87
2019-06-07T18:00:28.118Z,0.70
2019-06-07T18:02:46.645Z,1.03
2019-06-07T18:05:15.763Z,0.70
2019-06-07T18:07:45.462Z,1.00
2019-06-07T18:10:15.202Z,0.63
2019-06-07T18:12:43.981Z,0.80
2019-06-07T18:15:12.628Z,0.70
2019-06-07T18:17:40.767Z,0.62
2019-06-07T18:20:12.314Z,1.10
2019-06-07T18:22:40.642Z,2.43
2019-06-07T18:25:09.349Z,7.13
2019-06-07T18:27:37.491Z,1.50
2019-06-07T18:30:11.515Z,0.85
2019-06-07T18:32:36.683Z,3.57
2019-06-07T18:35:05.174Z,1.95
2019-06-07T18:37:33.300Z,1.50
2019-06-07T18:40:01.547Z,1.47
2019-06-07T18:42:29.670Z,1.22
2019-06-07T18:44:57.777Z,1.00
2019-06-07T18:47:26.036Z,1.00
2019-06-07T18:49:54.156Z,1.03
2019-06-07T18:52:24.351Z,0.82
2019-06-07T18:54:53.087Z,1.10
2019-06-07T18:57:21.548Z,0.93
2019-06-07T18:59:50.200Z,0.87
2019-06-07T19:02:18.553Z,0.70
2019-06-07T19:04:47.997Z,0.63
2019-06-07T19:07:18.706Z,0.87
2019-06-07T19:09:46.799Z,1.23
2019-06-07T19:12:14.981Z,1.20
2019-06-07T19:14:43.222Z,1.03
2019-06-07T19:17:11.402Z,0.70
2019-06-07T19:19:39.638Z,0.73
2019-06-07T19:22:07.788Z,0.90
2019-06-07T19:24:35.916Z,0.97
2019-06-07T19:27:04.258Z,0.80
2019-06-07T19:29:33.979Z,0.60
2019-06-07T19:32:02.221Z,1.00
2019-06-07T19:34:30.367Z,1.50
2019-06-07T19:36:59.735Z,1.57
2019-06-07T19:39:27.983Z,0.80
2019-06-07T19:41:56.424Z,1.07
2019-06-07T19:44:24.557Z,2.20
2019-06-07T19:46:52.800Z,1.63
2019-06-07T19:49:23.943Z,0.80
2019-06-07T19:51:52.827Z,0.83
2019-06-07T19:54:21.233Z,0.87
2019-06-07T19:56:49.362Z,0.70
2019-06-07T19:59:17.598Z,1.00
2019-06-07T20:01:49.737Z,0.90
2019-06-07T20:04:25.569Z,0.97
2019-06-07T20:06:56.223Z,1.00
2019-06-07T20:09:34.009Z,0.90
2019-06-07T20:12:02.851Z,1.00
2019-06-07T20:14:31.340Z,0.80
2019-06-07T20:16:59.987Z,0.97
2019-06-07T20:19:31.173Z,1.00
2019-06-07T20:22:01.107Z,0.80
2019-06-07T20:24:29.510Z,0.77
2019-06-07T20:27:02.322Z,1.00
2019-06-07T20:29:30.191Z,0.90
2019-06-07T20:31:58.582Z,1.30
2019-06-07T20:34:26.805Z,1.40
2019-06-07T20:36:55.045Z,1.10
2019-06-07T20:39:23.359Z,0.60
2019-06-07T20:41:53.346Z,1.00
2019-06-07T20:44:21.600Z,0.93
2019-06-07T20:46:52.541Z,0.60
2019-06-07T20:49:23.660Z,0.97
2019-06-07T20:51:51.804Z,0.87
2019-06-07T20:54:23.613Z,1.00
2019-06-07T20:56:51.714Z,0.90
2019-06-07T20:59:19.832Z,1.00
2019-06-07T21:01:47.984Z,0.63
2019-06-07T21:04:16.095Z,0.93
2019-06-07T21:06:59.170Z,1.50
2019-06-07T21:09:20.343Z,1.07
2019-06-07T21:11:51.066Z,0.97
2019-06-07T21:14:19.399Z,1.00
2019-06-07T21:16:47.511Z,0.77
2019-06-07T21:19:21.746Z,0.93
2019-06-07T21:21:49.878Z,1.07
2019-06-07T21:24:19.853Z,1.37
2019-06-07T21:26:48.040Z,0.82
2019-06-07T21:29:16.294Z,0.60
2019-06-07T21:31:44.513Z,0.63
2019-06-07T21:34:14.207Z,0.70
2019-06-07T21:36:42.499Z,1.60
2019-06-07T21:39:12.376Z,0.90
2019-06-07T21:41:40.785Z,1.27
2019-06-07T21:44:12.357Z,0.60
2019-06-07T21:46:40.749Z,0.90
2019-06-07T21:49:08.948Z,0.60
2019-06-07T21:51:37.675Z,1.10
2019-06-07T21:54:08.121Z,1.10
2019-06-07T21:56:35.837Z,0.80
2019-06-07T21:59:05.053Z,0.70
2019-06-07T22:01:36.199Z,1.53
2019-06-07T22:04:07.349Z,0.70
2019-06-07T22:06:35.733Z,1.33
2019-06-07T22:09:05.615Z,0.70
2019-06-07T22:11:34.012Z,1.00
2019-06-07T22:14:02.226Z,0.90
2019-06-07T22:16:30.353Z,0.77
2019-06-07T22:18:58.582Z,0.80
2019-06-07T22:21:26.872Z,0.78
2019-06-07T22:23:55.881Z,0.63
2019-06-07T22:26:24.616Z,0.70
2019-06-07T22:28:52.960Z,0.80
2019-06-07T22:31:21.054Z,0.80
2019-06-07T22:33:49.528Z,0.80
2019-06-07T22:36:17.684Z,0.80
2019-06-07T22:38:45.821Z,0.75
2019-06-07T22:41:14.019Z,1.33
2019-06-07T22:43:42.752Z,0.97
2019-06-07T22:46:13.083Z,1.10
2019-06-07T22:48:40.873Z,0.77
2019-06-07T22:51:11.457Z,0.60
2019-06-07T22:53:42.736Z,1.13
2019-06-07T22:56:13.864Z,0.88
2019-06-07T22:58:42.124Z,0.70
2019-06-07T23:01:10.414Z,0.80
2019-06-07T23:03:52.740Z,1.00
2019-06-07T23:06:08.581Z,1.03
2019-06-07T23:08:38.246Z,0.90
2019-06-07T23:11:15.106Z,0.90
2019-06-07T23:13:42.427Z,1.00
2019-06-07T23:16:11.422Z,0.90
2019-06-07T23:18:42.485Z,0.60
2019-06-07T23:21:12.304Z,1.10
2019-06-07T23:23:43.788Z,0.50
2019-06-07T23:26:12.203Z,0.80
2019-06-07T23:28:40.434Z,0.80
2019-06-07T23:31:08.583Z,0.80
2019-06-07T23:33:36.742Z,0.50
2019-06-07T23:36:04.945Z,0.80
2019-06-07T23:38:33.060Z,0.60
2019-06-07T23:41:01.171Z,0.80
2019-06-07T23:43:29.290Z,0.50
2019-06-07T23:45:57.502Z,0.97
2019-06-07T23:48:25.608Z,0.60
2019-06-07T23:50:53.735Z,0.60
2019-06-07T23:53:22.163Z,0.70
2019-06-07T23:55:50.453Z,1.00
2019-06-07T23:58:18.655Z,0.85
